createdAt,value
2018-03-19T00:17:34.122Z,8.57
2018-03-19T00:32:34.922Z,9.83
2018-03-19T00:47:40.090Z,9.07
2018-03-19T01:02:37.434Z,12.20
2018-03-19T01:17:36.413Z,13.10
2018-03-19T01:32:34.137Z,14.90
2018-03-19T01:47:34.202Z,15.03
2018-03-19T02:02:36.751Z,13.60
2018-03-19T02:17:34.422Z,13.43
2018-03-19T02:32:36.607Z,11.20
2018-03-19T02:47:34.407Z,9.27
2018-03-19T03:02:36.937Z,7.10
2018-03-19T03:17:36.375Z,8.73
2018-03-19T03:32:34.655Z,10.57
2018-03-19T03:47:34.770Z,7.97
2018-03-19T04:02:36.168Z,14.00
2018-03-19T04:17:33.897Z,13.20
2018-03-19T04:32:34.894Z,15.10
2018-03-19T04:47:35.042Z,14.20
2018-03-19T05:02:34.474Z,14.27
2018-03-19T05:17:35.405Z,18.67
2018-03-19T05:32:34.317Z,12.53
2018-03-19T05:47:34.128Z,10.20
2018-03-19T06:02:36.706Z,13.10
2018-03-19T06:17:34.618Z,7.70
2018-03-19T06:32:34.378Z,12.10
2018-03-19T06:47:34.600Z,9.77
2018-03-19T07:02:34.246Z,7.60
2018-03-19T07:17:36.174Z,9.10
2018-03-19T07:32:36.958Z,5.57
2018-03-19T07:47:39.143Z,5.27
2018-03-19T08:02:50.516Z,3.97
2018-03-19T08:17:37.385Z,4.77
2018-03-19T08:32:35.080Z,4.30
2018-03-19T08:47:35.273Z,6.70
2018-03-19T09:02:37.665Z,6.90
2018-03-19T09:17:35.589Z,3.20
2018-03-19T09:47:36.378Z,3.50
2018-03-19T10:02:38.459Z,4.00
2018-03-19T10:17:36.759Z,4.00
2018-03-19T10:32:37.646Z,3.90
2018-03-19T10:47:36.592Z,4.00
2018-03-19T11:02:52.718Z,4.00
2018-03-19T11:17:35.989Z,4.87
2018-03-19T11:32:34.764Z,5.53
2018-03-19T11:47:34.053Z,4.80
2018-03-19T12:02:34.439Z,4.00
2018-03-19T12:17:33.483Z,4.77
2018-03-19T12:32:36.410Z,6.87
2018-03-19T12:47:35.277Z,4.77
2018-03-19T13:02:38.729Z,8.63
2018-03-19T13:17:34.402Z,7.70
2018-03-19T13:32:34.355Z,5.70
2018-03-19T13:47:36.271Z,8.13
2018-03-19T14:02:35.267Z,7.80
2018-03-19T14:17:34.696Z,6.77
2018-03-19T14:32:36.672Z,4.13
2018-03-19T15:17:34.989Z,5.17
2018-03-19T15:32:35.882Z,9.07
2018-03-19T15:47:34.898Z,7.37
2018-03-19T16:02:34.141Z,7.80
2018-03-19T16:17:34.129Z,11.03
2018-03-19T16:32:35.079Z,10.30
2018-03-19T16:47:35.813Z,8.37
2018-03-19T17:02:38.284Z,7.27
2018-03-19T17:17:33.810Z,7.90
2018-03-19T17:32:35.385Z,7.37
2018-03-19T17:47:36.834Z,19.30
2018-03-19T18:02:34.762Z,10.27
2018-03-19T18:17:37.918Z,9.20
2018-03-19T18:32:34.571Z,10.43
2018-03-19T18:47:36.662Z,7.67
2018-03-19T19:02:36.030Z,7.73
2018-03-19T19:17:36.887Z,6.50
2018-03-19T19:32:34.843Z,8.80
2018-03-19T19:47:37.957Z,10.30
2018-03-19T20:02:37.434Z,7.37
2018-03-19T20:17:34.909Z,9.00
2018-03-19T20:32:34.702Z,7.93
2018-03-19T20:47:34.728Z,7.63
2018-03-19T21:02:58.817Z,8.00
2018-03-19T21:17:34.384Z,7.47
2018-03-19T21:32:39.386Z,7.13
2018-03-19T21:47:39.140Z,7.57
2018-03-19T22:02:34.685Z,5.30
2018-03-19T22:17:34.661Z,5.77
2018-03-19T22:32:34.595Z,4.93
2018-03-19T22:47:34.600Z,4.60
2018-03-19T23:02:35.031Z,4.47
2018-03-19T23:17:34.885Z,4.53
2018-03-19T23:32:34.890Z,3.77
2018-03-19T23:47:34.855Z,5.20
